sensor_id;sensor_type;location;lat;lon;timestamp;P1;durP1;ratioP1;P2;durP2;ratioP2
38609;SDS011;24367;51.640;9.566;2022-12-22T00:00:50;4.18;;;3.13;;
38609;SDS011;24367;51.640;9.566;2022-12-22T00:06:19;4.82;;;2.40;;
38609;SDS011;24367;51.640;9.566;2022-12-22T00:09:02;3.30;;;2.50;;
38609;SDS011;24367;51.640;9.566;2022-12-22T00:11:48;3.47;;;2.42;;
38609;SDS011;24367;51.640;9.566;2022-12-22T00:14:32;3.58;;;2.22;;
38609;SDS011;24367;51.640;9.566;2022-12-22T00:17:19;4.10;;;2.92;;
38609;SDS011;24367;51.640;9.566;2022-12-22T00:20:10;3.53;;;2.60;;
38609;SDS011;24367;51.640;9.566;2022-12-22T00:22:55;4.97;;;2.30;;
38609;SDS011;24367;51.640;9.566;2022-12-22T00:25:39;3.33;;;2.45;;
38609;SDS011;24367;51.640;9.566;2022-12-22T00:28:25;4.10;;;2.78;;
38609;SDS011;24367;51.640;9.566;2022-12-22T00:31:09;4.00;;;2.53;;
38609;SDS011;24367;51.640;9.566;2022-12-22T00:33:53;3.55;;;2.60;;
38609;SDS011;24367;51.640;9.566;2022-12-22T00:36:37;3.72;;;2.67;;
38609;SDS011;24367;51.640;9.566;2022-12-22T00:39:23;4.85;;;2.60;;
38609;SDS011;24367;51.640;9.566;2022-12-22T00:42:07;3.97;;;2.55;;
38609;SDS011;24367;51.640;9.566;2022-12-22T00:44:53;3.30;;;2.35;;
38609;SDS011;24367;51.640;9.566;2022-12-22T00:47:37;3.63;;;2.15;;
38609;SDS011;24367;51.640;9.566;2022-12-22T00:50:22;3.13;;;2.00;;
38609;SDS011;24367;51.640;9.566;2022-12-22T00:53:10;3.42;;;2.30;;
38609;SDS011;24367;51.640;9.566;2022-12-22T00:55:54;3.15;;;2.13;;
38609;SDS011;24367;51.640;9.566;2022-12-22T00:58:38;2.90;;;2.03;;
38609;SDS011;24367;51.640;9.566;2022-12-22T01:01:25;3.25;;;2.22;;
38609;SDS011;24367;51.640;9.566;2022-12-22T01:04:10;4.20;;;2.45;;
38609;SDS011;24367;51.640;9.566;2022-12-22T01:06:54;3.42;;;2.42;;
38609;SDS011;24367;51.640;9.566;2022-12-22T01:09:38;3.95;;;1.90;;
38609;SDS011;24367;51.640;9.566;2022-12-22T01:12:24;3.33;;;2.22;;
38609;SDS011;24367;51.640;9.566;2022-12-22T01:15:09;3.45;;;2.22;;
38609;SDS011;24367;51.640;9.566;2022-12-22T01:17:55;3.30;;;2.50;;
38609;SDS011;24367;51.640;9.566;2022-12-22T01:20:39;3.30;;;2.17;;
38609;SDS011;24367;51.640;9.566;2022-12-22T01:23:24;3.17;;;2.25;;
38609;SDS011;24367;51.640;9.566;2022-12-22T01:26:08;2.85;;;2.00;;
38609;SDS011;24367;51.640;9.566;2022-12-22T01:28:53;2.78;;;2.20;;
38609;SDS011;24367;51.640;9.566;2022-12-22T01:31:36;3.35;;;2.15;;
38609;SDS011;24367;51.640;9.566;2022-12-22T01:34:21;4.93;;;2.13;;
38609;SDS011;24367;51.640;9.566;2022-12-22T01:37:06;3.08;;;2.15;;
38609;SDS011;24367;51.640;9.566;2022-12-22T01:39:49;3.33;;;2.22;;
38609;SDS011;24367;51.640;9.566;2022-12-22T01:42:33;3.00;;;1.80;;
38609;SDS011;24367;51.640;9.566;2022-12-22T01:45:19;2.72;;;1.80;;
38609;SDS011;24367;51.640;9.566;2022-12-22T01:48:05;3.60;;;2.38;;
38609;SDS011;24367;51.640;9.566;2022-12-22T01:50:54;2.90;;;2.20;;
38609;SDS011;24367;51.640;9.566;2022-12-22T01:53:39;3.13;;;2.15;;
38609;SDS011;24367;51.640;9.566;2022-12-22T01:56:23;2.55;;;1.90;;
38609;SDS011;24367;51.640;9.566;2022-12-22T01:59:07;4.03;;;2.57;;
38609;SDS011;24367;51.640;9.566;2022-12-22T02:01:51;2.85;;;2.00;;
38609;SDS011;24367;51.640;9.566;2022-12-22T02:04:35;4.25;;;2.58;;
38609;SDS011;24367;51.640;9.566;2022-12-22T02:07:30;3.28;;;2.10;;
38609;SDS011;24367;51.640;9.566;2022-12-22T02:10:26;2.80;;;1.88;;
38609;SDS011;24367;51.640;9.566;2022-12-22T02:13:22;2.70;;;2.03;;
38609;SDS011;24367;51.640;9.566;2022-12-22T02:16:09;3.60;;;2.33;;
38609;SDS011;24367;51.640;9.566;2022-12-22T02:18:56;3.78;;;2.30;;
38609;SDS011;24367;51.640;9.566;2022-12-22T02:21:47;3.85;;;2.40;;
38609;SDS011;24367;51.640;9.566;2022-12-22T02:24:40;3.20;;;1.98;;
38609;SDS011;24367;51.640;9.566;2022-12-22T02:27:28;3.15;;;2.08;;
38609;SDS011;24367;51.640;9.566;2022-12-22T02:30:13;3.30;;;2.38;;
38609;SDS011;24367;51.640;9.566;2022-12-22T02:32:57;3.22;;;2.30;;
38609;SDS011;24367;51.640;9.566;2022-12-22T02:35:43;3.10;;;2.00;;
38609;SDS011;24367;51.640;9.566;2022-12-22T02:38:31;2.67;;;1.80;;
38609;SDS011;24367;51.640;9.566;2022-12-22T02:41:23;3.53;;;2.47;;
38609;SDS011;24367;51.640;9.566;2022-12-22T02:44:17;3.83;;;2.65;;
38609;SDS011;24367;51.640;9.566;2022-12-22T02:47:07;3.55;;;2.30;;
38609;SDS011;24367;51.640;9.566;2022-12-22T02:49:56;3.85;;;2.45;;
38609;SDS011;24367;51.640;9.566;2022-12-22T02:52:43;3.22;;;2.30;;
38609;SDS011;24367;51.640;9.566;2022-12-22T02:55:28;3.40;;;2.40;;
38609;SDS011;24367;51.640;9.566;2022-12-22T02:58:13;2.95;;;2.05;;
38609;SDS011;24367;51.640;9.566;2022-12-22T03:00:58;3.63;;;2.60;;
38609;SDS011;24367;51.640;9.566;2022-12-22T03:03:43;2.88;;;2.03;;
38609;SDS011;24367;51.640;9.566;2022-12-22T03:06:27;3.53;;;2.35;;
38609;SDS011;24367;51.640;9.566;2022-12-22T03:09:11;3.35;;;2.15;;
38609;SDS011;24367;51.640;9.566;2022-12-22T03:11:56;3.88;;;2.63;;
38609;SDS011;24367;51.640;9.566;2022-12-22T03:14:40;3.78;;;2.33;;
38609;SDS011;24367;51.640;9.566;2022-12-22T03:17:25;3.22;;;2.25;;
38609;SDS011;24367;51.640;9.566;2022-12-22T03:20:09;2.88;;;2.00;;
38609;SDS011;24367;51.640;9.566;2022-12-22T03:22:53;2.97;;;1.98;;
38609;SDS011;24367;51.640;9.566;2022-12-22T03:25:37;3.58;;;2.05;;
38609;SDS011;24367;51.640;9.566;2022-12-22T03:28:15;3.22;;;2.10;;
38609;SDS011;24367;51.640;9.566;2022-12-22T03:30:42;2.97;;;1.90;;
38609;SDS011;24367;51.640;9.566;2022-12-22T03:33:10;3.35;;;2.15;;
38609;SDS011;24367;51.640;9.566;2022-12-22T03:35:36;3.22;;;2.28;;
38609;SDS011;24367;51.640;9.566;2022-12-22T03:38:03;2.80;;;2.05;;
38609;SDS011;24367;51.640;9.566;2022-12-22T03:40:29;2.85;;;1.83;;
38609;SDS011;24367;51.640;9.566;2022-12-22T03:42:56;2.67;;;1.90;;
38609;SDS011;24367;51.640;9.566;2022-12-22T03:45:40;3.00;;;2.30;;
38609;SDS011;24367;51.640;9.566;2022-12-22T03:48:25;3.05;;;2.25;;
38609;SDS011;24367;51.640;9.566;2022-12-22T03:50:52;2.97;;;1.90;;
38609;SDS011;24367;51.640;9.566;2022-12-22T03:53:18;3.20;;;2.17;;
38609;SDS011;24367;51.640;9.566;2022-12-22T03:55:45;2.88;;;2.08;;
38609;SDS011;24367;51.640;9.566;2022-12-22T03:58:11;2.63;;;1.90;;
38609;SDS011;24367;51.640;9.566;2022-12-22T04:00:38;3.40;;;2.28;;
38609;SDS011;24367;51.640;9.566;2022-12-22T04:03:04;2.90;;;1.90;;
38609;SDS011;24367;51.640;9.566;2022-12-22T04:05:32;2.88;;;1.75;;
38609;SDS011;24367;51.640;9.566;2022-12-22T04:07:58;3.03;;;2.00;;
38609;SDS011;24367;51.640;9.566;2022-12-22T04:10:24;2.90;;;1.90;;
38609;SDS011;24367;51.640;9.566;2022-12-22T04:13:08;3.08;;;1.98;;
38609;SDS011;24367;51.640;9.566;2022-12-22T04:15:35;2.95;;;1.90;;
38609;SDS011;24367;51.640;9.566;2022-12-22T04:18:01;3.65;;;2.20;;
38609;SDS011;24367;51.640;9.566;2022-12-22T04:20:28;2.75;;;2.10;;
38609;SDS011;24367;51.640;9.566;2022-12-22T04:22:56;3.10;;;1.92;;
38609;SDS011;24367;51.640;9.566;2022-12-22T04:25:23;2.58;;;1.70;;
38609;SDS011;24367;51.640;9.566;2022-12-22T04:27:49;4.40;;;1.92;;
38609;SDS011;24367;51.640;9.566;2022-12-22T04:30:16;2.67;;;1.65;;
38609;SDS011;24367;51.640;9.566;2022-12-22T04:32:43;2.40;;;1.70;;
38609;SDS011;24367;51.640;9.566;2022-12-22T04:35:09;3.30;;;1.70;;
38609;SDS011;24367;51.640;9.566;2022-12-22T04:37:36;2.78;;;2.00;;
38609;SDS011;24367;51.640;9.566;2022-12-22T04:40:05;2.35;;;1.80;;
38609;SDS011;24367;51.640;9.566;2022-12-22T04:42:32;2.90;;;2.05;;
38609;SDS011;24367;51.640;9.566;2022-12-22T04:44:58;2.67;;;1.80;;
38609;SDS011;24367;51.640;9.566;2022-12-22T04:47:24;2.70;;;1.85;;
38609;SDS011;24367;51.640;9.566;2022-12-22T04:49:51;2.80;;;1.70;;
38609;SDS011;24367;51.640;9.566;2022-12-22T04:52:19;2.72;;;1.63;;
38609;SDS011;24367;51.640;9.566;2022-12-22T04:54:46;2.13;;;1.50;;
38609;SDS011;24367;51.640;9.566;2022-12-22T04:57:13;2.88;;;1.80;;
38609;SDS011;24367;51.640;9.566;2022-12-22T04:59:40;2.50;;;1.60;;
38609;SDS011;24367;51.640;9.566;2022-12-22T05:02:06;2.50;;;1.73;;
38609;SDS011;24367;51.640;9.566;2022-12-22T05:04:33;2.83;;;1.77;;
38609;SDS011;24367;51.640;9.566;2022-12-22T05:07:00;2.83;;;1.70;;
38609;SDS011;24367;51.640;9.566;2022-12-22T05:09:26;2.55;;;1.75;;
38609;SDS011;24367;51.640;9.566;2022-12-22T05:11:53;3.03;;;1.75;;
38609;SDS011;24367;51.640;9.566;2022-12-22T05:14:20;2.47;;;1.50;;
38609;SDS011;24367;51.640;9.566;2022-12-22T05:16:47;2.50;;;1.60;;
38609;SDS011;24367;51.640;9.566;2022-12-22T05:19:13;2.67;;;1.70;;
38609;SDS011;24367;51.640;9.566;2022-12-22T05:21:40;2.30;;;1.48;;
38609;SDS011;24367;51.640;9.566;2022-12-22T05:24:06;2.67;;;1.77;;
38609;SDS011;24367;51.640;9.566;2022-12-22T05:26:33;2.05;;;1.50;;
38609;SDS011;24367;51.640;9.566;2022-12-22T05:28:59;2.40;;;1.70;;
38609;SDS011;24367;51.640;9.566;2022-12-22T05:31:27;2.85;;;2.05;;
38609;SDS011;24367;51.640;9.566;2022-12-22T05:33:53;2.55;;;1.67;;
38609;SDS011;24367;51.640;9.566;2022-12-22T05:36:20;2.85;;;1.83;;
38609;SDS011;24367;51.640;9.566;2022-12-22T05:38:46;2.88;;;1.95;;
38609;SDS011;24367;51.640;9.566;2022-12-22T05:41:13;2.30;;;1.42;;
38609;SDS011;24367;51.640;9.566;2022-12-22T05:43:39;2.30;;;1.50;;
38609;SDS011;24367;51.640;9.566;2022-12-22T05:46:07;2.33;;;1.65;;
38609;SDS011;24367;51.640;9.566;2022-12-22T05:48:35;3.58;;;1.73;;
38609;SDS011;24367;51.640;9.566;2022-12-22T05:51:02;2.53;;;1.75;;
38609;SDS011;24367;51.640;9.566;2022-12-22T05:53:29;2.45;;;1.67;;
38609;SDS011;24367;51.640;9.566;2022-12-22T05:55:55;2.53;;;1.90;;
38609;SDS011;24367;51.640;9.566;2022-12-22T05:58:22;2.38;;;1.80;;
38609;SDS011;24367;51.640;9.566;2022-12-22T06:00:49;2.75;;;1.92;;
38609;SDS011;24367;51.640;9.566;2022-12-22T06:03:15;3.03;;;2.13;;
38609;SDS011;24367;51.640;9.566;2022-12-22T06:05:43;2.97;;;1.73;;
38609;SDS011;24367;51.640;9.566;2022-12-22T06:08:09;2.72;;;1.80;;
38609;SDS011;24367;51.640;9.566;2022-12-22T06:10:36;2.83;;;2.03;;
38609;SDS011;24367;51.640;9.566;2022-12-22T06:13:02;3.13;;;2.30;;
38609;SDS011;24367;51.640;9.566;2022-12-22T06:15:31;2.63;;;2.00;;
38609;SDS011;24367;51.640;9.566;2022-12-22T06:17:57;2.70;;;1.73;;
38609;SDS011;24367;51.640;9.566;2022-12-22T06:20:24;2.22;;;1.73;;
38609;SDS011;24367;51.640;9.566;2022-12-22T06:22:52;3.22;;;2.38;;
38609;SDS011;24367;51.640;9.566;2022-12-22T06:25:18;2.53;;;1.83;;
38609;SDS011;24367;51.640;9.566;2022-12-22T06:27:45;2.90;;;2.00;;
38609;SDS011;24367;51.640;9.566;2022-12-22T06:30:12;2.85;;;2.13;;
38609;SDS011;24367;51.640;9.566;2022-12-22T06:32:39;3.05;;;2.20;;
38609;SDS011;24367;51.640;9.566;2022-12-22T06:35:06;2.50;;;1.95;;
38609;SDS011;24367;51.640;9.566;2022-12-22T06:37:33;2.85;;;2.10;;
38609;SDS011;24367;51.640;9.566;2022-12-22T06:40:01;2.60;;;1.80;;
38609;SDS011;24367;51.640;9.566;2022-12-22T06:42:28;4.03;;;2.22;;
38609;SDS011;24367;51.640;9.566;2022-12-22T06:45:12;2.67;;;1.98;;
38609;SDS011;24367;51.640;9.566;2022-12-22T06:47:38;2.40;;;1.83;;
38609;SDS011;24367;51.640;9.566;2022-12-22T06:50:05;2.83;;;2.30;;
38609;SDS011;24367;51.640;9.566;2022-12-22T06:52:32;3.00;;;2.38;;
38609;SDS011;24367;51.640;9.566;2022-12-22T06:54:59;2.70;;;2.03;;
38609;SDS011;24367;51.640;9.566;2022-12-22T06:57:27;2.88;;;2.30;;
38609;SDS011;24367;51.640;9.566;2022-12-22T06:59:54;2.95;;;2.22;;
38609;SDS011;24367;51.640;9.566;2022-12-22T07:02:20;3.08;;;2.35;;
38609;SDS011;24367;51.640;9.566;2022-12-22T07:04:46;2.78;;;2.08;;
38609;SDS011;24367;51.640;9.566;2022-12-22T07:07:13;3.03;;;2.28;;
38609;SDS011;24367;51.640;9.566;2022-12-22T07:09:39;2.33;;;1.88;;
38609;SDS011;24367;51.640;9.566;2022-12-22T07:12:06;2.72;;;2.03;;
38609;SDS011;24367;51.640;9.566;2022-12-22T07:14:34;2.63;;;2.08;;
38609;SDS011;24367;51.640;9.566;2022-12-22T07:17:00;3.00;;;2.20;;
38609;SDS011;24367;51.640;9.566;2022-12-22T07:19:26;3.15;;;2.20;;
38609;SDS011;24367;51.640;9.566;2022-12-22T07:21:53;3.50;;;2.20;;
38609;SDS011;24367;51.640;9.566;2022-12-22T07:24:19;3.60;;;2.13;;
38609;SDS011;24367;51.640;9.566;2022-12-22T07:26:49;4.50;;;2.05;;
38609;SDS011;24367;51.640;9.566;2022-12-22T07:29:15;4.45;;;2.22;;
38609;SDS011;24367;51.640;9.566;2022-12-22T07:31:43;3.70;;;2.47;;
38609;SDS011;24367;51.640;9.566;2022-12-22T07:34:09;3.35;;;2.30;;
38609;SDS011;24367;51.640;9.566;2022-12-22T07:36:36;4.60;;;2.50;;
38609;SDS011;24367;51.640;9.566;2022-12-22T07:39:03;4.63;;;2.38;;
38609;SDS011;24367;51.640;9.566;2022-12-22T07:41:29;3.60;;;2.53;;
38609;SDS011;24367;51.640;9.566;2022-12-22T07:44:13;5.07;;;2.38;;
38609;SDS011;24367;51.640;9.566;2022-12-22T07:46:39;7.03;;;2.40;;
38609;SDS011;24367;51.640;9.566;2022-12-22T07:49:08;3.25;;;2.30;;
38609;SDS011;24367;51.640;9.566;2022-12-22T07:51:54;3.15;;;2.05;;
38609;SDS011;24367;51.640;9.566;2022-12-22T07:54:21;3.45;;;2.70;;
38609;SDS011;24367;51.640;9.566;2022-12-22T07:56:47;3.55;;;2.47;;
38609;SDS011;24367;51.640;9.566;2022-12-22T07:59:14;3.58;;;2.67;;
38609;SDS011;24367;51.640;9.566;2022-12-22T08:01:41;4.22;;;2.30;;
38609;SDS011;24367;51.640;9.566;2022-12-22T08:04:09;3.42;;;2.17;;
38609;SDS011;24367;51.640;9.566;2022-12-22T08:06:36;3.45;;;2.60;;
38609;SDS011;24367;51.640;9.566;2022-12-22T08:09:03;3.65;;;2.58;;
38609;SDS011;24367;51.640;9.566;2022-12-22T08:11:29;3.35;;;2.30;;
38609;SDS011;24367;51.640;9.566;2022-12-22T08:13:56;6.80;;;2.70;;
38609;SDS011;24367;51.640;9.566;2022-12-22T08:16:22;6.82;;;2.50;;
38609;SDS011;24367;51.640;9.566;2022-12-22T08:18:49;5.13;;;2.97;;
38609;SDS011;24367;51.640;9.566;2022-12-22T08:21:17;5.38;;;2.75;;
38609;SDS011;24367;51.640;9.566;2022-12-22T08:23:43;3.30;;;2.55;;
38609;SDS011;24367;51.640;9.566;2022-12-22T08:26:10;4.55;;;2.50;;
38609;SDS011;24367;51.640;9.566;2022-12-22T08:28:43;8.07;;;2.67;;
38609;SDS011;24367;51.640;9.566;2022-12-22T08:31:11;7.43;;;2.67;;
38609;SDS011;24367;51.640;9.566;2022-12-22T08:33:38;3.60;;;2.55;;
38609;SDS011;24367;51.640;9.566;2022-12-22T08:36:05;8.82;;;3.10;;
38609;SDS011;24367;51.640;9.566;2022-12-22T08:38:33;7.13;;;3.05;;
38609;SDS011;24367;51.640;9.566;2022-12-22T08:41:00;4.50;;;2.70;;
38609;SDS011;24367;51.640;9.566;2022-12-22T08:43:27;3.88;;;2.65;;
38609;SDS011;24367;51.640;9.566;2022-12-22T08:45:55;5.82;;;2.38;;
38609;SDS011;24367;51.640;9.566;2022-12-22T08:48:21;6.65;;;2.50;;
38609;SDS011;24367;51.640;9.566;2022-12-22T08:50:48;3.95;;;2.60;;
38609;SDS011;24367;51.640;9.566;2022-12-22T08:53:14;7.10;;;3.03;;
38609;SDS011;24367;51.640;9.566;2022-12-22T08:55:43;5.72;;;2.55;;
38609;SDS011;24367;51.640;9.566;2022-12-22T08:58:16;4.68;;;2.50;;
38609;SDS011;24367;51.640;9.566;2022-12-22T09:00:42;6.72;;;2.80;;
38609;SDS011;24367;51.640;9.566;2022-12-22T09:03:09;3.97;;;2.65;;
38609;SDS011;24367;51.640;9.566;2022-12-22T09:05:35;5.10;;;2.72;;
38609;SDS011;24367;51.640;9.566;2022-12-22T09:08:02;5.68;;;2.53;;
38609;SDS011;24367;51.640;9.566;2022-12-22T09:10:29;4.28;;;2.45;;
38609;SDS011;24367;51.640;9.566;2022-12-22T09:12:57;4.25;;;2.65;;
38609;SDS011;24367;51.640;9.566;2022-12-22T09:15:24;7.65;;;2.88;;
38609;SDS011;24367;51.640;9.566;2022-12-22T09:17:50;3.38;;;2.53;;
38609;SDS011;24367;51.640;9.566;2022-12-22T09:20:17;3.15;;;1.85;;
38609;SDS011;24367;51.640;9.566;2022-12-22T09:22:43;3.88;;;2.03;;
38609;SDS011;24367;51.640;9.566;2022-12-22T09:25:09;3.00;;;1.80;;
38609;SDS011;24367;51.640;9.566;2022-12-22T09:27:38;3.33;;;1.65;;
38609;SDS011;24367;51.640;9.566;2022-12-22T09:30:06;7.90;;;1.75;;
38609;SDS011;24367;51.640;9.566;2022-12-22T09:32:33;7.68;;;2.25;;
38609;SDS011;24367;51.640;9.566;2022-12-22T09:35:00;3.05;;;1.80;;
38609;SDS011;24367;51.640;9.566;2022-12-22T09:37:26;8.73;;;2.25;;
38609;SDS011;24367;51.640;9.566;2022-12-22T09:39:53;4.72;;;1.90;;
38609;SDS011;24367;51.640;9.566;2022-12-22T09:42:19;6.32;;;2.13;;
38609;SDS011;24367;51.640;9.566;2022-12-22T09:44:48;4.78;;;2.20;;
38609;SDS011;24367;51.640;9.566;2022-12-22T09:47:20;3.72;;;2.08;;
38609;SDS011;24367;51.640;9.566;2022-12-22T09:49:49;8.85;;;2.08;;
38609;SDS011;24367;51.640;9.566;2022-12-22T09:52:20;8.05;;;2.15;;
38609;SDS011;24367;51.640;9.566;2022-12-22T09:54:48;3.65;;;2.10;;
38609;SDS011;24367;51.640;9.566;2022-12-22T09:57:14;3.22;;;2.20;;
38609;SDS011;24367;51.640;9.566;2022-12-22T09:59:41;3.22;;;2.30;;
38609;SDS011;24367;51.640;9.566;2022-12-22T10:02:14;2.97;;;1.85;;
38609;SDS011;24367;51.640;9.566;2022-12-22T10:04:55;5.00;;;2.40;;
38609;SDS011;24367;51.640;9.566;2022-12-22T10:07:32;4.03;;;2.10;;
38609;SDS011;24367;51.640;9.566;2022-12-22T10:10:03;3.45;;;1.63;;
38609;SDS011;24367;51.640;9.566;2022-12-22T10:12:31;3.47;;;1.92;;
38609;SDS011;24367;51.640;9.566;2022-12-22T10:14:58;4.65;;;2.10;;
38609;SDS011;24367;51.640;9.566;2022-12-22T10:17:27;4.60;;;2.30;;
38609;SDS011;24367;51.640;9.566;2022-12-22T10:20:05;2.88;;;1.83;;
38609;SDS011;24367;51.640;9.566;2022-12-22T10:22:36;3.33;;;1.92;;
38609;SDS011;24367;51.640;9.566;2022-12-22T10:25:08;2.90;;;2.13;;
38609;SDS011;24367;51.640;9.566;2022-12-22T10:27:53;4.50;;;2.38;;
38609;SDS011;24367;51.640;9.566;2022-12-22T10:30:22;3.55;;;2.00;;
38609;SDS011;24367;51.640;9.566;2022-12-22T10:33:04;3.60;;;2.10;;
38609;SDS011;24367;51.640;9.566;2022-12-22T10:35:42;2.65;;;1.90;;
38609;SDS011;24367;51.640;9.566;2022-12-22T10:38:12;3.47;;;2.20;;
38609;SDS011;24367;51.640;9.566;2022-12-22T10:40:41;6.65;;;2.50;;
38609;SDS011;24367;51.640;9.566;2022-12-22T10:43:08;9.85;;;2.75;;
38609;SDS011;24367;51.640;9.566;2022-12-22T10:45:35;25.80;;;8.98;;
38609;SDS011;24367;51.640;9.566;2022-12-22T10:48:03;17.73;;;7.28;;
38609;SDS011;24367;51.640;9.566;2022-12-22T10:50:31;17.88;;;8.15;;
38609;SDS011;24367;51.640;9.566;2022-12-22T10:52:57;16.73;;;9.10;;
38609;SDS011;24367;51.640;9.566;2022-12-22T10:55:27;14.55;;;8.18;;
38609;SDS011;24367;51.640;9.566;2022-12-22T10:58:05;15.82;;;8.15;;
38609;SDS011;24367;51.640;9.566;2022-12-22T11:00:38;16.17;;;7.57;;
38609;SDS011;24367;51.640;9.566;2022-12-22T11:03:08;13.00;;;6.70;;
38609;SDS011;24367;51.640;9.566;2022-12-22T11:05:38;13.93;;;6.72;;
38609;SDS011;24367;51.640;9.566;2022-12-22T11:08:11;11.10;;;6.07;;
38609;SDS011;24367;51.640;9.566;2022-12-22T11:10:42;11.18;;;6.68;;
38609;SDS011;24367;51.640;9.566;2022-12-22T11:13:22;12.15;;;6.63;;
38609;SDS011;24367;51.640;9.566;2022-12-22T11:18:33;14.27;;;6.57;;
38609;SDS011;24367;51.640;9.566;2022-12-22T11:21:07;11.40;;;5.90;;
38609;SDS011;24367;51.640;9.566;2022-12-22T11:23:40;11.98;;;6.63;;
38609;SDS011;24367;51.640;9.566;2022-12-22T11:28:47;9.88;;;5.85;;
38609;SDS011;24367;51.640;9.566;2022-12-22T11:31:38;15.05;;;6.07;;
38609;SDS011;24367;51.640;9.566;2022-12-22T11:34:16;12.82;;;6.25;;
38609;SDS011;24367;51.640;9.566;2022-12-22T11:37:01;10.13;;;6.13;;
38609;SDS011;24367;51.640;9.566;2022-12-22T11:39:36;9.52;;;5.15;;
38609;SDS011;24367;51.640;9.566;2022-12-22T11:42:09;10.10;;;6.07;;
38609;SDS011;24367;51.640;9.566;2022-12-22T11:44:44;8.52;;;5.22;;
38609;SDS011;24367;51.640;9.566;2022-12-22T11:47:15;9.52;;;5.60;;
38609;SDS011;24367;51.640;9.566;2022-12-22T11:49:54;11.18;;;5.63;;
38609;SDS011;24367;51.640;9.566;2022-12-22T11:52:31;7.32;;;4.88;;
38609;SDS011;24367;51.640;9.566;2022-12-22T11:55:23;7.55;;;4.72;;
38609;SDS011;24367;51.640;9.566;2022-12-22T11:57:57;9.85;;;4.78;;
38609;SDS011;24367;51.640;9.566;2022-12-22T12:00:47;7.97;;;5.28;;
38609;SDS011;24367;51.640;9.566;2022-12-22T12:03:27;7.78;;;5.03;;
38609;SDS011;24367;51.640;9.566;2022-12-22T12:06:08;9.73;;;5.20;;
38609;SDS011;24367;51.640;9.566;2022-12-22T12:08:48;8.50;;;5.40;;
38609;SDS011;24367;51.640;9.566;2022-12-22T12:11:26;9.90;;;4.80;;
38609;SDS011;24367;51.640;9.566;2022-12-22T12:13:57;7.20;;;5.10;;
38609;SDS011;24367;51.640;9.566;2022-12-22T12:16:32;7.72;;;5.28;;
38609;SDS011;24367;51.640;9.566;2022-12-22T12:19:18;7.97;;;4.88;;
38609;SDS011;24367;51.640;9.566;2022-12-22T12:21:54;8.30;;;4.50;;
38609;SDS011;24367;51.640;9.566;2022-12-22T12:24:27;8.52;;;5.40;;
38609;SDS011;24367;51.640;9.566;2022-12-22T12:27:05;10.15;;;5.18;;
38609;SDS011;24367;51.640;9.566;2022-12-22T12:29:34;7.40;;;4.82;;
38609;SDS011;24367;51.640;9.566;2022-12-22T12:32:04;6.72;;;4.80;;
38609;SDS011;24367;51.640;9.566;2022-12-22T12:34:37;8.57;;;4.65;;
38609;SDS011;24367;51.640;9.566;2022-12-22T12:37:07;9.57;;;4.47;;
38609;SDS011;24367;51.640;9.566;2022-12-22T12:39:40;7.07;;;4.47;;
38609;SDS011;24367;51.640;9.566;2022-12-22T12:42:15;7.30;;;4.50;;
38609;SDS011;24367;51.640;9.566;2022-12-22T12:44:47;8.07;;;4.30;;
38609;SDS011;24367;51.640;9.566;2022-12-22T12:47:20;7.15;;;4.28;;
38609;SDS011;24367;51.640;9.566;2022-12-22T12:49:50;8.35;;;4.25;;
38609;SDS011;24367;51.640;9.566;2022-12-22T12:55:28;6.60;;;4.20;;
38609;SDS011;24367;51.640;9.566;2022-12-22T12:57:56;6.35;;;4.03;;
38609;SDS011;24367;51.640;9.566;2022-12-22T13:00:40;6.43;;;3.95;;
38609;SDS011;24367;51.640;9.566;2022-12-22T13:03:11;9.55;;;4.18;;
38609;SDS011;24367;51.640;9.566;2022-12-22T13:06:01;6.50;;;3.92;;
38609;SDS011;24367;51.640;9.566;2022-12-22T13:08:29;7.35;;;4.38;;
38609;SDS011;24367;51.640;9.566;2022-12-22T13:13:57;5.20;;;3.72;;
38609;SDS011;24367;51.640;9.566;2022-12-22T13:16:28;6.22;;;4.20;;
38609;SDS011;24367;51.640;9.566;2022-12-22T13:18:56;6.13;;;3.40;;
38609;SDS011;24367;51.640;9.566;2022-12-22T13:21:24;6.38;;;3.92;;
38609;SDS011;24367;51.640;9.566;2022-12-22T13:23:57;5.50;;;3.70;;
38609;SDS011;24367;51.640;9.566;2022-12-22T13:28:58;6.03;;;3.65;;
38609;SDS011;24367;51.640;9.566;2022-12-22T13:31:28;5.15;;;3.40;;
38609;SDS011;24367;51.640;9.566;2022-12-22T13:34:00;5.82;;;3.50;;
38609;SDS011;24367;51.640;9.566;2022-12-22T13:36:30;5.65;;;3.60;;
38609;SDS011;24367;51.640;9.566;2022-12-22T13:38:58;5.30;;;3.65;;
38609;SDS011;24367;51.640;9.566;2022-12-22T13:41:25;5.93;;;3.15;;
38609;SDS011;24367;51.640;9.566;2022-12-22T13:43:53;6.30;;;3.70;;
38609;SDS011;24367;51.640;9.566;2022-12-22T13:46:22;4.00;;;2.83;;
38609;SDS011;24367;51.640;9.566;2022-12-22T13:48:49;5.45;;;3.55;;
38609;SDS011;24367;51.640;9.566;2022-12-22T13:51:19;5.57;;;3.35;;
38609;SDS011;24367;51.640;9.566;2022-12-22T13:53:47;5.32;;;3.53;;
38609;SDS011;24367;51.640;9.566;2022-12-22T13:56:17;3.60;;;2.90;;
38609;SDS011;24367;51.640;9.566;2022-12-22T13:58:45;4.60;;;3.35;;
38609;SDS011;24367;51.640;9.566;2022-12-22T14:01:13;5.57;;;3.30;;
38609;SDS011;24367;51.640;9.566;2022-12-22T14:03:47;5.57;;;2.92;;
38609;SDS011;24367;51.640;9.566;2022-12-22T14:06:24;5.00;;;3.10;;
38609;SDS011;24367;51.640;9.566;2022-12-22T14:08:52;5.30;;;3.08;;
38609;SDS011;24367;51.640;9.566;2022-12-22T14:11:18;4.82;;;3.05;;
38609;SDS011;24367;51.640;9.566;2022-12-22T14:13:45;4.60;;;2.90;;
38609;SDS011;24367;51.640;9.566;2022-12-22T14:16:12;5.82;;;3.15;;
38609;SDS011;24367;51.640;9.566;2022-12-22T14:18:39;4.70;;;2.97;;
38609;SDS011;24367;51.640;9.566;2022-12-22T14:21:07;4.55;;;2.75;;
38609;SDS011;24367;51.640;9.566;2022-12-22T14:23:36;4.40;;;3.33;;
38609;SDS011;24367;51.640;9.566;2022-12-22T14:26:04;4.60;;;2.65;;
38609;SDS011;24367;51.640;9.566;2022-12-22T14:28:32;3.80;;;2.70;;
38609;SDS011;24367;51.640;9.566;2022-12-22T14:31:07;6.07;;;3.28;;
38609;SDS011;24367;51.640;9.566;2022-12-22T14:33:37;4.15;;;2.92;;
38609;SDS011;24367;51.640;9.566;2022-12-22T14:36:15;4.13;;;2.60;;
38609;SDS011;24367;51.640;9.566;2022-12-22T14:38:45;5.13;;;2.67;;
38609;SDS011;24367;51.640;9.566;2022-12-22T14:41:16;6.43;;;3.10;;
38609;SDS011;24367;51.640;9.566;2022-12-22T14:43:59;4.75;;;2.95;;
38609;SDS011;24367;51.640;9.566;2022-12-22T14:46:26;3.88;;;2.50;;
38609;SDS011;24367;51.640;9.566;2022-12-22T14:48:52;3.33;;;2.45;;
38609;SDS011;24367;51.640;9.566;2022-12-22T14:51:20;4.13;;;2.50;;
38609;SDS011;24367;51.640;9.566;2022-12-22T14:53:48;4.55;;;2.58;;
38609;SDS011;24367;51.640;9.566;2022-12-22T14:56:15;3.97;;;2.55;;
38609;SDS011;24367;51.640;9.566;2022-12-22T14:58:43;4.65;;;2.88;;
38609;SDS011;24367;51.640;9.566;2022-12-22T15:01:12;5.68;;;2.70;;
38609;SDS011;24367;51.640;9.566;2022-12-22T15:03:41;4.35;;;2.60;;
38609;SDS011;24367;51.640;9.566;2022-12-22T15:06:22;4.22;;;2.80;;
38609;SDS011;24367;51.640;9.566;2022-12-22T15:09:05;4.22;;;2.40;;
38609;SDS011;24367;51.640;9.566;2022-12-22T15:11:50;4.20;;;2.40;;
38609;SDS011;24367;51.640;9.566;2022-12-22T15:14:19;3.58;;;2.60;;
38609;SDS011;24367;51.640;9.566;2022-12-22T15:16:47;4.03;;;2.63;;
38609;SDS011;24367;51.640;9.566;2022-12-22T15:19:14;3.53;;;2.45;;
38609;SDS011;24367;51.640;9.566;2022-12-22T15:25:30;4.15;;;2.58;;
38609;SDS011;24367;51.640;9.566;2022-12-22T15:27:56;3.42;;;2.45;;
38609;SDS011;24367;51.640;9.566;2022-12-22T15:30:23;3.42;;;2.53;;
38609;SDS011;24367;51.640;9.566;2022-12-22T15:32:49;4.30;;;2.60;;
38609;SDS011;24367;51.640;9.566;2022-12-22T15:35:17;3.60;;;2.63;;
38609;SDS011;24367;51.640;9.566;2022-12-22T15:37:44;3.10;;;2.20;;
38609;SDS011;24367;51.640;9.566;2022-12-22T15:40:13;4.13;;;2.80;;
38609;SDS011;24367;51.640;9.566;2022-12-22T15:42:41;3.60;;;2.42;;